Time;durP1;ratioP1;P1;durP2;ratioP2;P2;SDS_P1;SDS_P2;PMS_P1;PMS_P2;Temp;Humidity;BMP_temperature;BMP_pressure;BME280_temperature;BME280_humidity;BME280_pressure;Samples;Min_cycle;Max_cycle;Signal;HPM_P1;HPM_P2
2021/12/05 00:17:23;;;;;;;8.93;7.97;;;;;;;3.50;100.00;99692.44;6205398;28;20600;-62
2021/12/05 00:20:59;;;;;;;9.23;8.27;;;;;;;3.39;100.00;99695.84;6207693;28;20324;-62
2021/12/05 00:24:26;;;;;;;8.57;7.80;;;;;;;3.37;100.00;99708.72;6209954;28;20233;-62
2021/12/05 00:27:53;;;;;;;7.50;6.80;;;;;;;3.57;100.00;99707.91;6200786;28;20237;-64
2021/12/05 00:31:35;;;;;;;7.60;7.00;;;;;;;3.45;100.00;99701.00;6203321;28;20520;-63
2021/12/05 00:54:03;;;;;;;7.90;7.20;;;;;;;3.66;100.00;99733.66;6239124;28;20522;-64
2021/12/05 01:01:21;;;;;;;8.23;7.50;;;;;;;3.29;100.00;99741.28;6228858;28;20595;-63
2021/12/05 01:05:03;;;;;;;6.53;6.03;;;;;;;3.39;100.00;99749.91;6227183;28;20255;-63
2021/12/05 01:08:40;;;;;;;8.07;7.37;;;;;;;3.39;100.00;99749.91;6221628;28;20233;-62
2021/12/05 01:15:45;;;;;;;7.23;6.63;;;;;;;3.79;100.00;99762.88;6204141;28;20233;-62
2021/12/05 01:19:09;;;;;;;7.17;6.47;;;;;;;3.78;100.00;99758.56;6203265;28;20598;-63
2021/12/05 01:22:37;;;;;;;6.30;5.80;;;;;;;3.95;100.00;99756.88;6204308;28;20638;-62
2021/12/05 01:26:03;;;;;;;7.10;6.57;;;;;;;3.72;100.00;99754.28;6205304;28;20225;-64
2021/12/05 01:29:33;;;;;;;7.03;6.43;;;;;;;3.74;100.00;99758.59;6201320;28;20256;-64
2021/12/05 01:33:03;;;;;;;8.03;7.33;;;;;;;3.70;100.00;99767.16;6216976;28;20504;-63
2021/12/05 01:36:31;;;;;;;6.60;6.10;;;;;;;3.51;100.00;99771.41;6207213;28;20232;-63
2021/12/05 01:40:16;;;;;;;6.80;6.20;;;;;;;3.66;100.00;99769.72;6217661;28;20221;-63
2021/12/05 01:44:20;;;;;;;7.73;7.03;;;;;;;3.39;100.00;99771.34;6205997;28;20913;-63
2021/12/05 01:48:10;;;;;;;7.30;6.60;;;;;;;3.60;100.00;99769.69;6203148;28;20611;-63
2021/12/05 01:55:35;;;;;;;7.10;6.50;;;;;;;3.28;100.00;99770.47;6282598;27;20848;-62
2021/12/05 01:59:11;;;;;;;7.13;6.43;;;;;;;3.15;100.00;99772.13;6294543;28;20326;-63
2021/12/05 02:10:43;;;;;;;8.23;7.57;;;;;;;3.56;100.00;99781.72;6290937;28;20235;-62
2021/12/05 02:36:21;;;;;;;8.93;8.13;;;;;;;3.52;100.00;99808.31;6242614;28;20229;-63
2021/12/05 02:40:06;;;;;;;9.17;8.30;;;;;;;3.29;100.00;99798.75;6270956;28;20252;-63
2021/12/05 02:43:31;;;;;;;9.60;8.63;;;;;;;3.37;100.00;99806.50;6297089;27;20589;-63
2021/12/05 02:47:00;;;;;;;9.97;9.07;;;;;;;3.36;100.00;99812.53;6295029;27;20246;-63
2021/12/05 02:50:26;;;;;;;10.10;8.97;;;;;;;3.52;100.00;99814.28;6293484;28;20313;-63
2021/12/05 02:53:48;;;;;;;10.57;9.67;;;;;;;3.43;100.00;99818.56;6283504;28;20569;-62
2021/12/05 02:57:11;;;;;;;10.83;9.83;;;;;;;3.53;100.00;99817.75;6285285;28;20239;-63
2021/12/05 03:00:41;;;;;;;10.60;9.60;;;;;;;3.38;100.00;99820.28;6268908;28;20691;-63
2021/12/05 03:04:04;;;;;;;10.17;9.27;;;;;;;3.29;100.00;99811.63;6260909;28;20323;-63
2021/12/05 03:07:29;;;;;;;9.70;8.80;;;;;;;3.20;100.00;99811.63;6253032;28;20225;-63
2021/12/05 03:10:52;;;;;;;10.63;9.63;;;;;;;3.59;100.00;99814.31;6252129;28;20251;-63
2021/12/05 03:14:15;;;;;;;11.70;10.50;;;;;;;3.30;100.00;99823.66;6254685;28;20232;-63
2021/12/05 03:17:37;;;;;;;10.97;9.90;;;;;;;3.08;100.00;99816.66;6264724;28;20514;-63
2021/12/05 03:21:01;;;;;;;10.97;9.97;;;;;;;3.38;100.00;99817.69;6280056;28;20235;-62
2021/12/05 03:24:25;;;;;;;13.30;12.00;;;;;;;3.56;100.00;99815.16;6276279;28;20247;-63
2021/12/05 03:27:47;;;;;;;11.97;10.77;;;;;;;3.73;100.00;99816.09;6274123;28;20321;-63
2021/12/05 03:31:12;;;;;;;11.63;10.63;;;;;;;3.58;100.00;99830.63;6278334;28;20590;-62
2021/12/05 03:34:33;;;;;;;12.63;11.43;;;;;;;3.61;100.00;99828.94;6269539;28;20231;-63
2021/12/05 03:37:58;;;;;;;11.67;10.50;;;;;;;3.50;100.00;99830.59;6269008;28;20250;-63
2021/12/05 03:41:20;;;;;;;11.70;10.50;;;;;;;3.52;100.00;99818.59;6276850;28;20251;-62
2021/12/05 03:44:43;;;;;;;13.00;11.30;;;;;;;3.50;100.00;99830.59;6271561;28;20326;-63
2021/12/05 03:48:07;;;;;;;12.20;11.00;;;;;;;3.43;100.00;99839.16;6268430;28;20232;-62
2021/12/05 03:51:34;;;;;;;16.67;12.03;;;;;;;3.11;100.00;99848.44;6264448;28;20236;-63
2021/12/05 03:54:56;;;;;;;11.57;10.37;;;;;;;3.41;100.00;99849.44;6273073;28;20243;-63
2021/12/05 03:58:19;;;;;;;13.13;11.83;;;;;;;3.30;100.00;99851.97;6270435;28;20227;-64
2021/12/05 04:01:41;;;;;;;16.63;13.90;;;;;;;3.51;100.00;99847.78;6271868;28;20349;-63
2021/12/05 04:05:04;;;;;;;15.23;13.63;;;;;;;2.92;100.00;99856.88;6272951;28;22281;-62
2021/12/05 04:08:27;;;;;;;15.00;13.13;;;;;;;3.28;100.00;99858.81;6273308;28;20332;-63
2021/12/05 04:11:57;;;;;;;14.00;12.50;;;;;;;3.38;100.00;99854.59;6274187;28;20302;-63
2021/12/05 04:15:20;;;;;;;15.70;14.10;;;;;;;3.49;100.00;99865.78;6271838;28;20239;-63
2021/12/05 04:18:47;;;;;;;13.53;11.87;;;;;;;3.49;100.00;99872.63;6271990;28;20337;-63
2021/12/05 04:22:10;;;;;;;13.47;11.80;;;;;;;3.37;100.00;99882.88;6272587;28;20559;-63
2021/12/05 04:25:35;;;;;;;18.17;14.00;;;;;;;3.25;100.00;99889.66;6269071;28;20235;-62
2021/12/05 04:28:57;;;;;;;14.10;12.47;;;;;;;3.47;100.00;99898.38;6274415;28;20227;-63
2021/12/05 04:32:18;;;;;;;15.30;13.43;;;;;;;3.17;100.00;99904.22;6266465;28;20231;-63
2021/12/05 04:35:39;;;;;;;14.17;12.30;;;;;;;3.38;100.00;99902.63;6265900;28;20228;-63
2021/12/05 04:39:04;;;;;;;14.50;12.37;;;;;;;3.09;100.00;99906.72;6267836;28;20236;-63
2021/12/05 04:42:25;;;;;;;16.70;12.93;;;;;;;3.13;100.00;99916.19;6274014;28;20322;-63
2021/12/05 04:45:47;;;;;;;14.57;13.17;;;;;;;3.14;100.00;99919.63;6265308;28;20256;-63
2021/12/05 04:49:09;;;;;;;15.67;13.43;;;;;;;3.43;100.00;99921.50;6271929;28;20227;-64
2021/12/05 04:52:30;;;;;;;16.67;13.80;;;;;;;3.48;100.00;99920.69;6270123;28;20240;-62
2021/12/05 04:55:53;;;;;;;18.43;14.03;;;;;;;3.58;100.00;99923.31;6267068;28;20256;-63
2021/12/05 04:59:18;;;;;;;16.87;13.80;;;;;;;3.35;100.00;99929.19;6273108;28;20774;-64
2021/12/05 05:02:39;;;;;;;18.80;15.33;;;;;;;3.39;100.00;99935.22;6275776;28;20588;-63
2021/12/05 05:06:06;;;;;;;17.50;13.83;;;;;;;3.47;100.00;99943.84;6258132;28;20460;-63
2021/12/05 05:09:28;;;;;;;18.87;16.03;;;;;;;3.14;100.00;99955.63;6268121;28;20227;-62
2021/12/05 05:12:50;;;;;;;16.63;14.07;;;;;;;3.17;100.00;99958.25;6267022;28;20231;-63
2021/12/05 05:16:14;;;;;;;17.80;14.30;;;;;;;3.32;100.00;99960.06;6270983;28;20644;-63
2021/12/05 05:19:38;;;;;;;18.60;16.43;;;;;;;3.40;100.00;99960.13;6266013;28;20505;-63
2021/12/05 05:23:19;;;;;;;16.37;13.50;;;;;;;3.15;100.00;99962.53;6271430;28;20227;-64
2021/12/05 05:27:20;;;;;;;15.57;13.93;;;;;;;3.28;100.00;99964.34;6272330;28;20586;-62
2021/12/05 05:39:01;;;;;;;14.90;13.37;;;;;;;3.40;100.00;99968.69;6264057;28;20228;-63
2021/12/05 05:45:46;;;;;;;17.87;14.27;;;;;;;3.62;100.00;99992.84;6270529;28;20220;-63
2021/12/05 05:49:15;;;;;;;15.63;13.87;;;;;;;3.42;100.00;100000.47;6266884;28;20227;-63
2021/12/05 05:52:36;;;;;;;15.07;13.30;;;;;;;3.41;100.00;100006.44;6273424;28;20234;-64
2021/12/05 05:55:57;;;;;;;14.03;12.53;;;;;;;3.28;100.00;100013.22;6275508;28;20227;-64
2021/12/05 05:59:23;;;;;;;15.93;13.90;;;;;;;3.32;100.00;100016.69;6268308;28;20517;-63
2021/12/05 06:06:27;;;;;;;19.07;16.03;;;;;;;3.55;100.00;100024.59;6267235;28;20223;-63
2021/12/05 06:09:48;;;;;;;16.00;13.40;;;;;;;3.73;100.00;100016.97;6273997;28;20223;-63
2021/12/05 06:13:09;;;;;;;16.73;14.57;;;;;;;3.58;100.00;100022.00;6260952;28;20518;-63
2021/12/05 06:16:31;;;;;;;15.13;13.40;;;;;;;3.64;100.00;100014.31;6259360;28;20288;-63
2021/12/05 06:19:54;;;;;;;17.27;14.60;;;;;;;3.77;100.00;100022.16;6273083;28;20227;-62
2021/12/05 06:23:18;;;;;;;17.10;13.57;;;;;;;3.73;100.00;100028.97;6262651;28;20228;-63
2021/12/05 06:26:40;;;;;;;14.37;12.50;;;;;;;3.71;100.00;100041.84;6272936;28;20521;-63
2021/12/05 06:30:09;;;;;;;14.10;12.60;;;;;;;3.71;100.00;100041.00;6269971;28;20323;-63
2021/12/05 06:37:29;;;;;;;14.73;13.23;;;;;;;3.70;100.00;100045.28;6264412;28;20216;-63
2021/12/05 06:41:02;;;;;;;15.50;13.30;;;;;;;3.70;100.00;100047.88;6272429;28;20756;-62
2021/12/05 06:48:02;;;;;;;17.27;13.07;;;;;;;3.23;100.00;100058.63;6270474;28;20235;-62
2021/12/05 06:51:26;;;;;;;15.50;13.90;;;;;;;3.25;100.00;100067.22;6276043;28;20242;-62
2021/12/05 06:54:47;;;;;;;15.40;13.60;;;;;;;3.47;100.00;100072.56;6272952;28;20227;-64
2021/12/05 06:58:09;;;;;;;14.57;13.07;;;;;;;3.41;100.00;100072.50;6280292;28;20227;-64
2021/12/05 07:01:30;;;;;;;13.70;12.23;;;;;;;3.51;100.00;100084.63;6271011;28;20234;-64
2021/12/05 07:05:09;;;;;;;15.60;13.20;;;;;;;3.51;100.00;100094.94;6269153;28;20228;-64
2021/12/05 07:08:33;;;;;;;14.40;13.00;;;;;;;3.58;100.00;100112.13;6257291;28;20231;-63
2021/12/05 07:12:18;;;;;;;12.97;11.67;;;;;;;3.39;100.00;100111.09;6268567;28;20272;-64
2021/12/05 07:15:43;;;;;;;14.67;11.77;;;;;;;3.74;100.00;100114.00;6272978;28;20559;-63
2021/12/05 07:19:26;;;;;;;13.83;11.93;;;;;;;3.32;100.00;100123.06;6274295;28;20243;-64
2021/12/05 07:22:57;;;;;;;12.53;11.23;;;;;;;3.50;100.00;100130.09;6267436;28;20242;-63
2021/12/05 07:26:24;;;;;;;13.50;12.13;;;;;;;3.58;100.00;100126.72;6271094;28;20228;-65
2021/12/05 07:40:44;;;;;;;15.17;13.50;;;;;;;3.46;100.00;100150.66;6270681;28;20235;-63
2021/12/05 07:44:05;;;;;;;14.50;13.20;;;;;;;3.58;100.00;100152.47;6269471;28;20230;-64
2021/12/05 07:47:30;;;;;;;13.00;11.60;;;;;;;3.70;100.00;100153.44;6271147;28;20231;-63
2021/12/05 07:51:04;;;;;;;14.10;12.67;;;;;;;3.63;100.00;100161.13;6266241;28;20235;-64
2021/12/05 07:54:33;;;;;;;14.00;12.70;;;;;;;3.23;100.00;100166.72;6271075;28;20259;-64
2021/12/05 07:58:19;;;;;;;13.00;11.63;;;;;;;3.26;100.00;100177.06;6272599;28;20224;-64
2021/12/05 08:16:18;;;;;;;14.00;12.60;;;;;;;3.09;100.00;100209.47;6265575;28;20319;-64
2021/12/05 08:19:39;;;;;;;14.37;11.83;;;;;;;3.45;100.00;100211.59;6261507;28;20251;-63
2021/12/05 08:23:01;;;;;;;14.90;13.30;;;;;;;3.24;100.00;100221.63;6256299;28;20232;-64
2021/12/05 08:26:31;;;;;;;13.77;12.37;;;;;;;3.54;100.00;100228.81;6265747;28;20232;-63
2021/12/05 08:29:56;;;;;;;14.23;12.73;;;;;;;3.05;100.00;100244.56;6246451;28;20224;-64
2021/12/05 08:33:38;;;;;;;16.57;14.77;;;;;;;3.18;100.00;100245.59;6265845;28;20224;-64
2021/12/05 08:41:13;;;;;;;12.63;11.43;;;;;;;3.41;100.00;100260.41;6245023;28;20240;-64
2021/12/05 08:45:12;;;;;;;15.00;13.50;;;;;;;3.68;100.00;100260.75;6263162;28;20258;-64
2021/12/05 09:21:55;;;;;;;19.03;16.97;;;;;;;5.34;100.00;100310.03;6265650;28;20235;-63
2021/12/05 09:40:30;;;;;;;13.83;12.27;;;;;;;4.45;100.00;100336.16;6270981;28;20238;-61
2021/12/05 09:51:28;;;;;;;12.70;11.47;;;;;;;4.21;100.00;100356.59;6270094;28;20883;-60
2021/12/05 10:09:43;;;;;;;12.00;10.80;;;;;;;3.58;100.00;100379.91;6274593;28;20231;-60
2021/12/05 10:13:21;;;;;;;17.10;15.40;;;;;;;3.69;100.00;100380.06;6274071;28;20231;-64
2021/12/05 10:26:18;;;;;;;26.53;23.73;;;;;;;3.77;100.00;100396.47;6271268;28;20235;-61
2021/12/05 10:35:49;;;;;;;11.67;10.57;;;;;;;4.23;100.00;100406.44;6247754;28;20232;-62
2021/12/05 10:39:21;;;;;;;15.13;12.07;;;;;;;4.00;100.00;100404.47;6233961;28;20225;-63
2021/12/05 10:42:46;;;;;;;13.73;12.33;;;;;;;3.70;100.00;100411.00;6216167;28;20236;-62
2021/12/05 10:46:09;;;;;;;12.27;11.00;;;;;;;3.74;100.00;100410.19;6218467;28;20319;-62
2021/12/05 10:49:32;;;;;;;12.27;11.07;;;;;;;3.69;100.00;100413.53;6223118;28;20232;-61
2021/12/05 10:53:17;;;;;;;14.27;12.77;;;;;;;3.91;100.00;100419.81;6213044;28;20337;-60
2021/12/05 10:56:41;;;;;;;13.50;12.20;;;;;;;3.88;100.00;100424.94;6239189;28;20767;-62
2021/12/05 11:00:11;;;;;;;16.87;13.17;;;;;;;4.08;100.00;100427.75;6219439;28;20237;-61
2021/12/05 11:03:33;;;;;;;13.53;12.10;;;;;;;4.30;100.00;100428.81;6205528;28;20229;-62
2021/12/05 11:06:55;;;;;;;14.97;11.63;;;;;;;4.08;100.00;100427.75;6214481;28;20527;-61
2021/12/05 11:10:16;;;;;;;14.17;12.73;;;;;;;4.22;100.00;100443.34;6215754;28;20228;-62
2021/12/05 11:13:40;;;;;;;15.60;13.97;;;;;;;4.26;100.00;100445.97;6224225;28;20521;-61
2021/12/05 11:17:05;;;;;;;13.97;12.57;;;;;;;4.18;100.00;100449.31;6225897;28;20236;-61
2021/12/05 11:20:31;;;;;;;14.27;12.77;;;;;;;4.05;100.00;100446.63;6221029;28;20252;-63
2021/12/05 11:24:09;;;;;;;16.40;14.70;;;;;;;3.97;100.00;100448.22;6212270;28;20232;-63
2021/12/05 11:27:32;;;;;;;14.83;13.37;;;;;;;4.23;100.00;100457.97;6243179;28;20232;-63
2021/12/05 11:30:56;;;;;;;14.33;13.00;;;;;;;4.23;100.00;100458.84;6236292;28;20229;-62
2021/12/05 11:34:28;;;;;;;14.63;13.13;;;;;;;4.26;100.00;100466.59;6227485;28;20328;-62
2021/12/05 11:37:53;;;;;;;14.87;13.37;;;;;;;4.42;100.00;100467.66;6229972;28;20539;-61
2021/12/05 11:41:20;;;;;;;14.80;13.40;;;;;;;4.45;100.00;100467.66;6236793;28;20228;-62
2021/12/05 11:44:42;;;;;;;16.30;14.33;;;;;;;4.39;100.00;100467.59;6235899;28;20299;-62
2021/12/05 11:48:18;;;;;;;16.03;13.83;;;;;;;4.40;100.00;100471.03;6213335;28;20245;-61
2021/12/05 11:51:44;;;;;;;15.87;14.20;;;;;;;4.30;100.00;100464.91;6207941;28;20233;-62
2021/12/05 11:55:07;;;;;;;15.23;13.63;;;;;;;4.60;100.00;100469.53;6214367;28;20229;-62
2021/12/05 11:58:27;;;;;;;15.87;14.37;;;;;;;4.59;100.00;100470.38;6218732;28;20609;-61
2021/12/05 12:01:52;;;;;;;17.40;15.70;;;;;;;4.58;100.00;100480.69;6209187;28;20253;-61
2021/12/05 12:05:20;;;;;;;16.17;14.47;;;;;;;4.44;100.00;100475.38;6222772;28;20262;-61
2021/12/05 12:08:41;;;;;;;15.77;14.27;;;;;;;4.42;100.00;100484.81;6233993;28;20706;-61
2021/12/05 12:12:03;;;;;;;15.90;14.30;;;;;;;4.22;100.00;100489.75;6231560;28;20233;-62
2021/12/05 12:15:27;;;;;;;16.83;14.23;;;;;;;4.43;100.00;100492.56;6237614;28;20224;-63
2021/12/05 12:18:50;;;;;;;17.17;15.50;;;;;;;4.47;100.00;100484.00;6234870;28;20622;-62
2021/12/05 12:22:13;;;;;;;17.10;15.40;;;;;;;4.59;100.00;100485.00;6221500;28;20233;-62
2021/12/05 12:25:37;;;;;;;18.90;17.07;;;;;;;4.45;100.00;100487.44;6218215;28;20227;-62
2021/12/05 12:28:59;;;;;;;19.47;16.80;;;;;;;4.45;100.00;100488.28;6497375;22;20745;-61
2021/12/05 12:32:25;;;;;;;19.60;17.60;;;;;;;4.48;100.00;100495.22;6229372;28;20229;-61
2021/12/05 12:35:48;;;;;;;21.17;17.60;;;;;;;4.41;100.00;100491.69;6228679;28;20517;-61
2021/12/05 12:39:28;;;;;;;18.53;16.63;;;;;;;4.53;100.00;100493.53;6232138;28;20229;-62
2021/12/05 12:42:49;;;;;;;24.37;21.90;;;;;;;4.63;100.00;100497.06;6241489;28;20231;-62
2021/12/05 12:46:38;;;;;;;21.03;18.83;;;;;;;4.22;100.00;100498.34;6228130;28;20490;-61
2021/12/05 12:50:22;;;;;;;20.20;17.97;;;;;;;4.34;100.00;100510.50;6232001;28;20224;-61
2021/12/05 12:53:43;;;;;;;21.80;19.47;;;;;;;4.19;100.00;100510.31;6236947;28;20225;-62
2021/12/05 12:57:12;;;;;;;20.30;18.20;;;;;;;3.96;100.00;100521.22;6233976;28;20228;-61
2021/12/05 13:00:34;;;;;;;21.43;19.13;;;;;;;3.84;100.00;100515.88;6238385;28;20738;-62
2021/12/05 13:04:29;;;;;;;20.60;18.40;;;;;;;4.05;100.00;100526.50;6244096;28;20219;-61
2021/12/05 13:11:27;;;;;;;22.57;19.77;;;;;;;4.44;100.00;100535.56;6230178;28;20248;-62
2021/12/05 13:15:05;;;;;;;22.00;19.77;;;;;;;4.40;100.00;100535.50;6240641;28;20228;-62
2021/12/05 13:18:30;;;;;;;22.67;19.40;;;;;;;4.37;100.00;100533.75;6234121;28;20228;-62
2021/12/05 13:21:54;;;;;;;23.37;19.00;;;;;;;5.83;100.00;100547.94;6227880;28;20236;-61
2021/12/05 13:25:15;;;;;;;19.17;16.87;;;;;;;6.33;100.00;100543.94;6226460;28;20641;-64
2021/12/05 13:28:38;;;;;;;24.43;21.83;;;;;;;5.46;100.00;100546.84;6222970;28;20232;-61
2021/12/05 13:32:07;;;;;;;22.17;19.80;;;;;;;5.00;100.00;100556.78;6220598;28;20449;-60
2021/12/05 13:35:32;;;;;;;25.30;20.77;;;;;;;4.50;100.00;100561.41;6208374;28;20307;-61
2021/12/05 13:38:53;;;;;;;31.90;28.50;;;;;;;3.98;100.00;100559.91;6198226;28;20260;-63
2021/12/05 13:42:22;;;;;;;25.20;22.03;;;;;;;4.08;100.00;100554.88;6201262;28;20233;-61
2021/12/05 13:45:44;;;;;;;23.17;20.27;;;;;;;3.94;100.00;100564.13;6207243;28;20233;-60
2021/12/05 13:49:40;;;;;;;24.90;22.23;;;;;;;4.02;100.00;100567.69;6209602;28;20622;-63
2021/12/05 13:53:27;;;;;;;23.30;20.73;;;;;;;4.20;100.00;100573.94;6225526;28;20594;-62
2021/12/05 13:56:48;;;;;;;20.87;18.27;;;;;;;3.90;100.00;100578.69;6220061;28;20814;-61
2021/12/05 14:00:39;;;;;;;21.30;18.47;;;;;;;4.33;100.00;100583.56;6216323;28;20304;-61
2021/12/05 14:04:23;;;;;;;20.93;18.77;;;;;;;4.02;100.00;100595.16;6232174;28;20236;-59
2021/12/05 14:07:49;;;;;;;20.10;17.97;;;;;;;3.74;100.00;100603.34;6232088;28;20315;-61
2021/12/05 14:11:13;;;;;;;20.03;18.03;;;;;;;3.73;100.00;100606.75;6230643;28;20543;-61
2021/12/05 14:14:37;;;;;;;21.77;19.37;;;;;;;3.60;100.00;100609.97;6234787;28;20225;-60
2021/12/05 14:17:58;;;;;;;22.07;18.90;;;;;;;3.87;100.00;100613.84;6223379;28;20229;-60
2021/12/05 14:21:20;;;;;;;19.53;17.43;;;;;;;4.18;100.00;100622.03;6214138;28;20237;-61
2021/12/05 14:24:43;;;;;;;22.10;19.80;;;;;;;4.16;100.00;100631.44;6216477;28;20586;-60
2021/12/05 14:28:05;;;;;;;20.17;17.83;;;;;;;4.26;100.00;100635.88;6220834;28;20233;-62
2021/12/05 14:31:28;;;;;;;20.20;18.00;;;;;;;4.14;100.00;100644.31;6217180;28;20237;-61
2021/12/05 14:34:49;;;;;;;23.40;20.20;;;;;;;4.03;100.00;100649.31;6239813;28;20228;-62
2021/12/05 14:38:10;;;;;;;19.90;17.67;;;;;;;4.28;100.00;100665.13;6240726;28;20311;-62
2021/12/05 14:41:32;;;;;;;18.70;16.80;;;;;;;4.25;100.00;100668.53;6239800;28;20228;-62
2021/12/05 14:44:55;;;;;;;18.10;16.27;;;;;;;4.10;100.00;100671.72;6234187;28;20264;-62
2021/12/05 14:48:17;;;;;;;19.53;17.57;;;;;;;4.04;100.00;100684.53;6213507;28;20233;-61
2021/12/05 14:51:41;;;;;;;18.13;16.33;;;;;;;4.15;100.00;100682.13;6235781;28;20232;-62
2021/12/05 14:55:07;;;;;;;17.73;15.93;;;;;;;4.19;100.00;100685.59;6228556;28;20252;-62
2021/12/05 14:58:30;;;;;;;18.77;16.87;;;;;;;4.23;100.00;100687.41;6206174;28;20248;-62
2021/12/05 15:01:58;;;;;;;28.17;25.27;;;;;;;4.14;100.00;100685.53;6206964;28;20232;-63
2021/12/05 15:05:19;;;;;;;26.03;23.37;;;;;;;4.20;100.00;100695.94;6217690;28;20261;-64
2021/12/05 15:08:41;;;;;;;19.13;16.90;;;;;;;4.04;100.00;100705.16;6203108;28;20668;-61
2021/12/05 15:12:07;;;;;;;18.53;16.40;;;;;;;4.06;100.00;100703.47;6210848;28;20240;-62
2021/12/05 15:15:28;;;;;;;17.33;15.63;;;;;;;3.92;100.00;100715.28;6213267;28;20222;-61
2021/12/05 15:18:50;;;;;;;16.03;14.33;;;;;;;3.94;100.00;100717.03;6213012;28;20324;-61
2021/12/05 15:22:13;;;;;;;18.13;16.37;;;;;;;4.11;100.00;100717.31;6212815;28;20229;-62
2021/12/05 15:25:36;;;;;;;17.23;15.43;;;;;;;3.86;100.00;100721.19;6234398;28;20613;-63
2021/12/05 15:29:01;;;;;;;15.07;13.57;;;;;;;3.93;100.00;100728.16;6202285;28;20237;-62
2021/12/05 15:32:25;;;;;;;16.30;14.63;;;;;;;4.00;100.00;100739.44;6215288;28;20232;-60
2021/12/05 15:35:48;;;;;;;18.37;16.47;;;;;;;3.90;100.00;100742.72;6236345;28;20216;-61
2021/12/05 15:39:19;;;;;;;15.43;13.87;;;;;;;3.91;100.00;100741.88;6210379;28;20245;-60
2021/12/05 15:42:40;;;;;;;20.10;16.67;;;;;;;3.87;100.00;100748.66;6214465;28;20276;-62
2021/12/05 15:46:03;;;;;;;19.17;17.17;;;;;;;3.84;100.00;100752.91;6224916;28;20220;-62
2021/12/05 15:49:25;;;;;;;18.67;16.70;;;;;;;3.92;100.00;100762.50;6213016;28;20236;-62
2021/12/05 15:52:50;;;;;;;15.33;13.63;;;;;;;3.85;100.00;100762.38;6208466;28;20237;-62
2021/12/05 15:56:14;;;;;;;16.60;14.80;;;;;;;3.82;100.00;100768.34;6231186;28;20232;-61
2021/12/05 15:59:39;;;;;;;17.67;15.87;;;;;;;3.78;100.00;100770.81;6232101;28;20237;-60
2021/12/05 16:03:04;;;;;;;17.10;15.07;;;;;;;3.64;100.00;100781.75;6205059;28;20343;-61
2021/12/05 16:06:32;;;;;;;20.77;15.67;;;;;;;3.26;100.00;100784.47;6205234;28;20229;-62
2021/12/05 16:10:13;;;;;;;16.87;14.63;;;;;;;3.50;100.00;100791.78;6236046;28;20247;-62
2021/12/05 16:13:36;;;;;;;15.90;14.20;;;;;;;3.65;100.00;100804.09;6220989;28;20820;-62
2021/12/05 16:16:58;;;;;;;29.50;26.37;;;;;;;3.67;100.00;100802.41;6202469;28;20217;-61
2021/12/05 16:20:23;;;;;;;18.03;16.23;;;;;;;3.63;100.00;100810.94;6201844;28;20221;-61
2021/12/05 16:23:44;;;;;;;15.73;14.13;;;;;;;3.63;100.00;100818.66;6224540;28;20228;-60
2021/12/05 16:27:06;;;;;;;19.60;15.30;;;;;;;3.66;100.00;100821.28;6225207;28;20233;-62
2021/12/05 16:30:32;;;;;;;17.73;15.50;;;;;;;3.67;100.00;100823.03;6210178;28;20589;-60
2021/12/05 16:33:58;;;;;;;18.17;16.30;;;;;;;3.53;100.00;100827.06;6223268;28;20225;-61
2021/12/05 16:37:19;;;;;;;18.13;16.23;;;;;;;3.64;100.00;100838.41;6215593;28;20229;-61
2021/12/05 16:40:54;;;;;;;16.53;14.77;;;;;;;3.53;100.00;100850.22;6204899;28;20233;-61
2021/12/05 16:44:19;;;;;;;16.30;14.70;;;;;;;3.63;100.00;100840.97;6225368;28;20327;-62
2021/12/05 16:51:21;;;;;;;20.60;17.47;;;;;;;;;;6251805;27;20375;-61
2021/12/05 16:54:48;;;;;;;18.03;15.40;;;;;;;;;;6244837;28;21845;-61
2021/12/05 16:58:17;;;;;;;18.77;16.33;;;;;;;;;;6254990;28;20708;-60
2021/12/05 17:01:39;;;;;;;18.70;16.60;;;;;;;;;;6241083;28;20227;-62
2021/12/05 17:05:03;;;;;;;18.53;16.37;;;;;;;;;;6252033;28;20227;-60
2021/12/05 17:08:28;;;;;;;20.27;17.73;;;;;;;;;;6230066;28;20774;-60
2021/12/05 17:11:49;;;;;;;18.87;16.90;;;;;;;;;;6230544;28;20704;-61
2021/12/05 17:15:15;;;;;;;20.87;18.27;;;;;;;;;;6242466;28;20236;-61
2021/12/05 17:18:38;;;;;;;18.10;16.20;;;;;;;;;;6235821;28;20262;-62
2021/12/05 17:21:59;;;;;;;21.13;18.93;;;;;;;;;;6227646;28;20236;-61
2021/12/05 17:25:29;;;;;;;24.63;20.27;;;;;;;;;;6256137;28;20228;-60
2021/12/05 17:28:52;;;;;;;22.23;17.37;;;;;;;;;;6242800;28;20224;-61
2021/12/05 17:32:16;;;;;;;21.03;18.27;;;;;;;;;;6246644;28;20232;-61
2021/12/05 17:35:37;;;;;;;22.73;19.23;;;;;;;;;;6250992;28;20228;-61
2021/12/05 17:39:02;;;;;;;23.33;19.20;;;;;;;;;;6226860;28;20216;-61
2021/12/05 17:42:25;;;;;;;23.60;19.73;;;;;;;;;;6230431;28;20228;-61
2021/12/05 17:45:46;;;;;;;22.67;19.37;;;;;;;;;;6234628;28;20236;-62
2021/12/05 17:49:10;;;;;;;22.27;19.67;;;;;;;;;;6236616;28;20250;-62
2021/12/05 17:52:31;;;;;;;19.83;17.83;;;;;;;;;;6247661;28;20236;-61
2021/12/05 17:55:59;;;;;;;23.67;21.07;;;;;;;;;;6251438;28;20259;-61
2021/12/05 17:59:29;;;;;;;22.93;20.03;;;;;;;;;;6251630;28;20228;-61
2021/12/05 18:02:54;;;;;;;25.23;19.77;;;;;;;;;;6227889;28;20232;-61
2021/12/05 18:06:15;;;;;;;24.97;21.13;;;;;;;;;;6231689;28;20340;-61
2021/12/05 18:09:35;;;;;;;22.43;18.90;;;;;;;;;;6238097;28;20236;-62
2021/12/05 18:12:59;;;;;;;22.33;19.93;;;;;;;;;;6234045;28;20225;-61
2021/12/05 18:16:23;;;;;;;25.03;21.20;;;;;;;;;;6230741;28;20838;-61
2021/12/05 18:19:45;;;;;;;26.73;23.97;;;;;;;;;;6234171;28;20244;-60
2021/12/05 18:23:08;;;;;;;26.30;22.20;;;;;;;;;;6224303;28;20241;-62
2021/12/05 18:26:28;;;;;;;23.97;20.40;;;;;;;;;;6230624;28;20220;-59
2021/12/05 18:29:49;;;;;;;23.57;21.00;;;;;;;;;;6234199;28;20228;-61
2021/12/05 18:33:14;;;;;;;22.03;19.50;;;;;;;;;;6231062;28;20228;-61
2021/12/05 18:36:38;;;;;;;26.07;22.07;;;;;;;;;;6233706;28;20236;-61
2021/12/05 18:39:59;;;;;;;25.13;19.77;;;;;;;;;;6237551;28;20796;-62
2021/12/05 18:43:23;;;;;;;24.50;21.77;;;;;;;;;;6235764;28;20220;-61
2021/12/05 18:46:45;;;;;;;25.40;21.10;;;;;;;;;;6233119;28;20233;-61
2021/12/05 18:50:09;;;;;;;26.97;22.93;;;;;;;;;;6230552;28;20545;-61
2021/12/05 18:53:30;;;;;;;26.93;23.07;;;;;;;;;;6229393;28;20692;-62
2021/12/05 18:56:52;;;;;;;26.37;21.90;;;;;;;;;;6239683;28;20243;-61
2021/12/05 19:00:25;;;;;;;26.87;22.07;;;;;;;;;;6237472;28;21275;-62
2021/12/05 19:07:40;;;;;;;25.73;21.43;;;;;;;;;;6235462;28;20232;-62
2021/12/05 19:14:41;;;;;;;26.80;23.53;;;;;;;;;;6234228;28;20572;-63
2021/12/05 19:18:02;;;;;;;27.63;22.67;;;;;;;;;;6235024;28;20617;-61
2021/12/05 19:21:23;;;;;;;26.10;22.00;;;;;;;;;;6230429;28;20220;-62
2021/12/05 19:24:47;;;;;;;26.37;23.10;;;;;;;;;;6236707;28;20232;-61
2021/12/05 19:28:09;;;;;;;28.07;22.93;;;;;;;;;;6232406;28;20267;-62
2021/12/05 19:31:31;;;;;;;25.33;22.07;;;;;;;;;;6231331;28;20275;-61
2021/12/05 19:34:51;;;;;;;24.60;20.53;;;;;;;;;;6235793;28;20228;-60
2021/12/05 19:38:13;;;;;;;23.90;21.47;;;;;;;;;;6227848;28;20264;-61
2021/12/05 19:41:37;;;;;;;23.83;21.33;;;;;;;;;;6233663;28;20229;-61
2021/12/05 19:44:58;;;;;;;28.37;22.97;;;;;;;;;;6232000;28;20712;-62
2021/12/05 19:48:19;;;;;;;26.17;22.87;;;;;;;;;;6229829;28;20523;-61
2021/12/05 19:51:39;;;;;;;24.70;22.13;;;;;;;;;;6230601;28;20236;-61
2021/12/05 19:55:00;;;;;;;23.70;20.30;;;;;;;;;;6230439;28;20225;-62
2021/12/05 19:58:23;;;;;;;27.47;23.73;;;;;;;;;;6232458;28;21422;-61
2021/12/05 20:01:45;;;;;;;24.70;21.50;;;;;;;;;;6229715;28;20248;-61
2021/12/05 20:05:07;;;;;;;25.50;20.47;;;;;;;;;;6238924;28;20870;-63
2021/12/05 20:08:29;;;;;;;25.93;21.97;;;;;;;;;;6230019;28;20232;-63
2021/12/05 20:11:51;;;;;;;24.50;21.13;;;;;;;;;;6229160;28;20323;-62
2021/12/05 20:15:13;;;;;;;23.83;20.93;;;;;;;;;;6215913;28;20231;-61
2021/12/05 20:18:34;;;;;;;22.77;20.30;;;;;;;;;;6215632;28;20228;-62